createdAt,value
2023-04-05T00:00:12.261Z,-1.81
2023-04-05T00:03:03.254Z,-1.84
2023-04-05T00:05:30.740Z,-1.85
2023-04-05T00:07:57.965Z,-1.87
2023-04-05T00:10:28.001Z,-1.91
2023-04-05T00:13:00.821Z,-1.95
2023-04-05T00:15:28.086Z,-1.95
2023-04-05T00:17:55.414Z,-1.97
2023-04-05T00:20:22.608Z,-1.96
2023-04-05T00:22:50.897Z,-1.96
2023-04-05T00:25:18.598Z,-1.95
2023-04-05T00:27:45.920Z,-1.94
2023-04-05T00:30:13.472Z,-1.92
2023-04-05T00:32:40.730Z,-1.93
2023-04-05T00:35:08.208Z,-1.94
2023-04-05T00:37:35.108Z,-1.95
2023-04-05T00:40:02.557Z,-1.94
2023-04-05T00:42:29.912Z,-1.92
2023-04-05T00:44:58.231Z,-1.93
2023-04-05T00:47:26.650Z,-1.96
2023-04-05T00:49:53.909Z,-1.96
2023-04-05T00:52:23.476Z,-1.96
2023-04-05T00:54:51.873Z,-1.95
2023-04-05T00:57:18.770Z,-1.95
2023-04-05T00:59:46.922Z,-1.93
2023-04-05T01:02:18.247Z,-1.93
2023-04-05T01:04:50.291Z,-1.99
2023-04-05T01:07:37.728Z,-2.00
2023-04-05T01:10:10.774Z,-2.02
2023-04-05T01:12:39.833Z,-2.01
2023-04-05T01:15:07.407Z,-2.06
2023-04-05T01:17:39.306Z,-2.07
2023-04-05T01:20:12.151Z,-2.09
2023-04-05T01:22:52.170Z,-2.04
2023-04-05T01:25:36.968Z,-2.01
2023-04-05T01:28:06.733Z,-1.97
2023-04-05T01:30:36.357Z,-1.95
2023-04-05T01:33:23.916Z,-1.94
2023-04-05T01:36:01.522Z,-1.96
2023-04-05T01:38:29.236Z,-1.99
2023-04-05T01:40:56.591Z,-2.01
2023-04-05T01:43:23.685Z,-1.99
2023-04-05T01:45:51.009Z,-2.02
2023-04-05T01:48:18.199Z,-1.99
2023-04-05T01:50:45.829Z,-1.96
2023-04-05T01:53:14.367Z,-1.96
2023-04-05T01:55:44.072Z,-1.93
2023-04-05T01:58:12.549Z,-1.93
2023-04-05T02:00:39.999Z,-1.93
2023-04-05T02:03:07.699Z,-1.96
2023-04-05T02:05:35.063Z,-1.95
2023-04-05T02:08:03.284Z,-2.02
2023-04-05T02:10:30.656Z,-2.05
2023-04-05T02:12:57.594Z,-2.06
2023-04-05T02:15:25.276Z,-2.08
2023-04-05T02:17:54.259Z,-2.14
2023-04-05T02:20:21.766Z,-2.16
2023-04-05T02:22:51.966Z,-2.17
2023-04-05T02:25:19.568Z,-2.15
2023-04-05T02:27:46.530Z,-2.13
2023-04-05T02:30:15.643Z,-2.17
2023-04-05T02:32:43.082Z,-2.18
2023-04-05T02:35:10.816Z,-2.18
2023-04-05T02:37:38.068Z,-2.19
2023-04-05T02:40:15.171Z,-2.19
2023-04-05T02:42:42.656Z,-2.23
2023-04-05T02:45:10.076Z,-2.23
2023-04-05T02:47:37.673Z,-2.21
2023-04-05T02:50:07.673Z,-2.18
2023-04-05T02:52:41.395Z,-2.17
2023-04-05T02:55:09.188Z,-2.15
2023-04-05T02:57:37.443Z,-2.15
2023-04-05T03:00:20.479Z,-2.16
2023-04-05T03:02:47.968Z,-2.18
2023-04-05T03:05:18.768Z,-2.14
2023-04-05T03:07:52.434Z,-2.12
2023-04-05T03:10:25.087Z,-2.15
2023-04-05T03:13:01.900Z,-2.18
2023-04-05T03:15:32.746Z,-2.18
2023-04-05T03:18:06.697Z,-2.17
2023-04-05T03:20:36.204Z,-2.20
2023-04-05T03:23:03.834Z,-2.18
2023-04-05T03:25:34.280Z,-2.19
2023-04-05T03:28:06.171Z,-2.23
2023-04-05T03:30:34.814Z,-2.23
2023-04-05T03:33:13.642Z,-2.24
2023-04-05T03:35:45.403Z,-2.25
2023-04-05T03:38:16.343Z,-2.24
2023-04-05T03:40:56.049Z,-2.21
2023-04-05T03:43:23.642Z,-2.19
2023-04-05T03:45:50.759Z,-2.19
2023-04-05T03:48:20.418Z,-2.19
2023-04-05T03:50:49.056Z,-2.20
2023-04-05T03:53:20.614Z,-2.18
2023-04-05T03:55:55.784Z,-2.18
2023-04-05T03:58:49.246Z,-2.17
2023-04-05T04:01:19.540Z,-2.19
2023-04-05T04:03:47.161Z,-2.20
2023-04-05T04:06:15.434Z,-2.20
2023-04-05T04:08:44.455Z,-2.23
2023-04-05T04:11:11.846Z,-2.26
2023-04-05T04:13:41.177Z,-2.25
2023-04-05T04:16:18.141Z,-2.25
2023-04-05T04:18:57.934Z,-2.21
2023-04-05T04:21:25.172Z,-2.20
2023-04-05T04:24:18.794Z,-2.22
2023-04-05T04:26:54.791Z,-2.23
2023-04-05T04:29:31.082Z,-2.22
2023-04-05T04:32:45.123Z,-2.21
2023-04-05T04:35:39.288Z,-2.21
2023-04-05T04:38:48.294Z,-2.19
2023-04-05T04:41:36.166Z,-2.19
2023-04-05T04:44:31.287Z,-2.18
2023-04-05T04:47:31.904Z,-2.19
2023-04-05T04:50:20.376Z,-2.14
2023-04-05T04:52:47.851Z,-2.08
2023-04-05T04:55:26.034Z,-2.08
2023-04-05T04:57:53.805Z,-2.06
2023-04-05T05:00:22.432Z,-2.04
2023-04-05T05:02:50.920Z,-1.98
2023-04-05T05:05:22.798Z,-1.92
2023-04-05T05:07:50.826Z,-1.88
2023-04-05T05:10:19.011Z,-1.67
2023-04-05T05:12:46.577Z,-1.17
2023-04-05T05:15:18.124Z,-1.09
2023-04-05T05:17:45.799Z,-0.87
2023-04-05T05:20:12.835Z,-0.75
2023-04-05T05:22:46.635Z,-0.31
2023-04-05T05:25:13.984Z,-0.48
2023-04-05T05:27:42.110Z,-0.74
2023-04-05T05:30:09.689Z,-0.50
2023-04-05T05:32:37.273Z,0.14
2023-04-05T05:35:06.116Z,0.33
2023-04-05T05:37:33.783Z,0.57
2023-04-05T05:40:01.064Z,1.40
2023-04-05T05:42:28.510Z,2.07
2023-04-05T05:44:55.553Z,1.97
2023-04-05T05:47:23.281Z,1.40
2023-04-05T05:49:50.413Z,0.87
2023-04-05T05:52:17.762Z,0.64
2023-04-05T05:54:44.745Z,0.39
2023-04-05T05:57:12.153Z,0.23
2023-04-05T05:59:42.154Z,0.03
2023-04-05T06:02:09.472Z,-0.04
2023-04-05T06:04:37.998Z,0.33
2023-04-05T06:07:05.253Z,0.38
2023-04-05T06:09:35.645Z,0.42
2023-04-05T06:12:03.222Z,0.67
2023-04-05T06:14:30.260Z,0.98
2023-04-05T06:16:57.925Z,1.04
2023-04-05T06:19:25.980Z,1.39
2023-04-05T06:21:53.541Z,1.39
2023-04-05T06:24:21.081Z,1.67
2023-04-05T06:26:48.388Z,1.68
2023-04-05T06:29:15.536Z,1.45
2023-04-05T06:31:43.945Z,1.44
2023-04-05T06:34:11.056Z,1.31
2023-04-05T06:36:38.363Z,1.09
2023-04-05T06:39:05.342Z,0.95
2023-04-05T06:41:32.699Z,0.92
2023-04-05T06:44:00.604Z,0.82
2023-04-05T06:46:28.548Z,0.80
2023-04-05T06:48:55.747Z,0.83
2023-04-05T06:51:26.793Z,0.81
2023-04-05T06:53:53.758Z,0.80
2023-04-05T06:56:21.842Z,0.90
2023-04-05T06:58:51.034Z,1.04
2023-04-05T07:01:18.674Z,1.09
2023-04-05T07:03:48.619Z,1.15
2023-04-05T07:06:16.546Z,1.22
2023-04-05T07:08:43.604Z,1.34
2023-04-05T07:11:12.973Z,1.49
2023-04-05T07:13:39.987Z,1.62
2023-04-05T07:16:07.799Z,1.76
2023-04-05T07:18:34.849Z,1.95
2023-04-05T07:21:03.889Z,2.04
2023-04-05T07:23:31.035Z,2.10
2023-04-05T07:26:05.679Z,2.27
2023-04-05T07:28:33.891Z,2.35
2023-04-05T07:31:04.217Z,2.30
2023-04-05T07:33:31.678Z,2.27
2023-04-05T07:35:59.273Z,2.37
2023-04-05T07:38:27.124Z,3.70
2023-04-05T07:40:54.718Z,6.38
2023-04-05T07:43:25.616Z,8.28
2023-04-05T07:45:56.480Z,10.03
2023-04-05T07:48:23.481Z,11.25
2023-04-05T07:50:52.996Z,12.42
2023-04-05T07:53:20.064Z,13.00
2023-04-05T07:55:47.370Z,11.84
2023-04-05T07:58:14.420Z,10.35
2023-04-05T08:00:42.304Z,9.86
2023-04-05T08:03:09.588Z,11.67
2023-04-05T08:05:36.967Z,12.54
2023-04-05T08:08:08.856Z,12.84
2023-04-05T08:10:38.914Z,13.02
2023-04-05T08:13:08.437Z,12.99
2023-04-05T08:15:38.164Z,13.16
2023-04-05T08:18:05.435Z,13.31
2023-04-05T08:20:39.680Z,12.41
2023-04-05T08:23:07.018Z,12.44
2023-04-05T08:25:34.491Z,12.41
2023-04-05T08:28:01.526Z,12.70
2023-04-05T08:30:28.815Z,12.66
2023-04-05T08:32:55.859Z,13.39
2023-04-05T08:35:23.778Z,13.87
2023-04-05T08:37:50.932Z,14.73
2023-04-05T08:40:18.384Z,14.35
2023-04-05T08:43:05.618Z,14.04
2023-04-05T08:45:34.452Z,13.50
2023-04-05T08:48:01.531Z,13.04
2023-04-05T08:50:31.262Z,13.20
2023-04-05T08:52:58.529Z,12.93
2023-04-05T08:55:26.308Z,13.70
2023-04-05T08:57:59.289Z,13.08
2023-04-05T09:00:33.024Z,12.42
2023-04-05T09:03:03.386Z,11.85
2023-04-05T09:05:31.049Z,12.08
2023-04-05T09:07:58.675Z,12.95
2023-04-05T09:10:27.401Z,12.59
2023-04-05T09:12:54.427Z,11.04
2023-04-05T09:16:28.622Z,9.64
2023-04-05T09:18:59.794Z,7.69
2023-04-05T09:21:29.519Z,8.94
2023-04-05T09:23:56.755Z,9.31
2023-04-05T09:26:26.446Z,9.23
2023-04-05T09:29:00.150Z,10.07
2023-04-05T09:31:40.282Z,9.33
2023-04-05T09:34:12.383Z,8.68
2023-04-05T09:36:46.616Z,8.99
2023-04-05T09:39:14.158Z,8.61
2023-04-05T09:41:42.013Z,9.14
2023-04-05T09:44:08.941Z,9.38
2023-04-05T09:46:39.609Z,9.69
2023-04-05T09:50:10.668Z,9.74
2023-04-05T09:52:37.976Z,9.60
2023-04-05T09:55:07.327Z,9.76
2023-04-05T09:57:35.607Z,8.74
2023-04-05T10:00:04.457Z,8.94
2023-04-05T10:02:42.021Z,8.45
2023-04-05T10:05:15.969Z,8.28
2023-04-05T10:07:43.757Z,8.50
2023-04-05T10:10:12.654Z,8.27
2023-04-05T10:12:41.736Z,8.97
2023-04-05T10:15:10.655Z,8.23
2023-04-05T10:18:00.722Z,8.10
2023-04-05T10:20:28.354Z,7.58
2023-04-05T10:23:08.092Z,8.00
2023-04-05T10:25:44.949Z,8.76
2023-04-05T10:28:14.852Z,9.20
2023-04-05T10:30:46.730Z,8.91
2023-04-05T10:33:20.658Z,8.39
2023-04-05T10:35:51.215Z,7.81
2023-04-05T10:38:24.625Z,7.67
2023-04-05T10:40:53.208Z,7.81
2023-04-05T10:43:27.202Z,8.43
2023-04-05T10:45:54.934Z,8.32
2023-04-05T10:48:37.502Z,8.21
2023-04-05T10:51:05.414Z,7.83
2023-04-05T10:53:34.203Z,7.87
2023-04-05T10:56:01.775Z,7.63
2023-04-05T10:58:29.583Z,7.63
2023-04-05T11:00:57.805Z,7.43
2023-04-05T11:03:43.935Z,7.48
2023-04-05T11:06:23.201Z,7.74
2023-04-05T11:08:55.006Z,7.84
2023-04-05T11:11:22.614Z,7.58
2023-04-05T11:13:53.384Z,8.15
2023-04-05T11:16:20.875Z,8.38
2023-04-05T11:18:49.645Z,8.51
2023-04-05T11:21:26.324Z,8.51
2023-04-05T11:24:07.923Z,8.16
2023-04-05T11:26:48.752Z,8.16
2023-04-05T11:29:16.336Z,8.85
2023-04-05T11:32:02.304Z,9.72
2023-04-05T11:34:29.525Z,9.89
2023-04-05T11:36:56.436Z,9.73
2023-04-05T11:39:24.126Z,9.33
2023-04-05T11:41:57.310Z,9.15
2023-04-05T11:44:24.996Z,8.84
2023-04-05T11:46:52.737Z,8.84
2023-04-05T11:49:22.290Z,8.64
2023-04-05T11:51:50.419Z,8.41
2023-04-05T11:54:31.268Z,8.24
2023-04-05T11:56:58.487Z,8.52
2023-04-05T11:59:35.943Z,8.48
2023-04-05T12:02:05.629Z,8.32
2023-04-05T12:04:32.989Z,8.11
2023-04-05T12:07:17.033Z,8.45
2023-04-05T12:10:03.986Z,8.64
2023-04-05T12:12:34.251Z,8.89
2023-04-05T12:15:02.862Z,8.98
2023-04-05T12:17:39.685Z,9.27
2023-04-05T12:20:07.563Z,8.61
2023-04-05T12:22:34.883Z,8.28
2023-04-05T12:25:05.479Z,7.88
2023-04-05T12:27:32.492Z,8.10
2023-04-05T12:30:10.176Z,8.02
2023-04-05T12:32:43.548Z,8.07
2023-04-05T12:35:12.455Z,8.09
2023-04-05T12:37:41.925Z,7.99
2023-04-05T12:40:10.869Z,8.05
2023-04-05T12:42:38.856Z,7.96
2023-04-05T12:45:07.836Z,8.18
2023-04-05T12:47:36.010Z,8.49
2023-04-05T12:50:14.663Z,8.75
2023-04-05T12:52:53.994Z,9.04
2023-04-05T12:55:21.704Z,8.73
2023-04-05T12:57:52.880Z,8.54
2023-04-05T13:00:24.763Z,8.43
2023-04-05T13:02:53.797Z,7.97
2023-04-05T13:05:22.357Z,7.79
2023-04-05T13:07:49.359Z,8.23
2023-04-05T13:10:17.358Z,8.41
2023-04-05T13:12:44.275Z,8.44
2023-04-05T13:15:11.721Z,8.45
2023-04-05T13:17:38.716Z,8.44
2023-04-05T13:20:06.570Z,8.31
2023-04-05T13:22:34.132Z,8.04
2023-04-05T13:25:01.418Z,7.90
2023-04-05T13:27:30.958Z,7.83
2023-04-05T13:29:58.119Z,7.83
2023-04-05T13:32:25.199Z,7.82
2023-04-05T13:34:52.592Z,8.06
2023-04-05T13:37:19.627Z,8.21
2023-04-05T13:39:49.616Z,8.27
2023-04-05T13:42:16.731Z,8.15
2023-04-05T13:44:44.065Z,8.00
2023-04-05T13:47:11.039Z,8.08
2023-04-05T13:49:38.485Z,8.28
2023-04-05T13:52:05.596Z,8.41
2023-04-05T13:54:32.896Z,8.23
2023-04-05T13:56:59.993Z,8.08
2023-04-05T13:59:29.915Z,8.02
2023-04-05T14:01:57.519Z,8.03
2023-04-05T14:04:24.984Z,8.02
2023-04-05T14:06:52.084Z,8.06
2023-04-05T14:09:19.417Z,7.80
2023-04-05T14:11:46.502Z,7.68
2023-04-05T14:14:14.083Z,7.80
2023-04-05T14:16:41.042Z,7.84
2023-04-05T14:19:08.375Z,7.87
2023-04-05T14:21:37.360Z,7.84
2023-04-05T14:24:04.623Z,8.04
2023-04-05T14:26:31.747Z,7.82
2023-04-05T14:28:59.322Z,7.84
2023-04-05T14:31:26.489Z,7.80
2023-04-05T14:33:53.928Z,7.69
2023-04-05T14:36:21.059Z,7.67
2023-04-05T14:38:48.436Z,7.79
2023-04-05T14:41:15.689Z,7.73
2023-04-05T14:43:43.372Z,7.92
2023-04-05T14:46:10.752Z,7.88
2023-04-05T14:48:38.210Z,7.88
2023-04-05T14:51:05.606Z,7.94
2023-04-05T14:53:33.030Z,7.92
2023-04-05T14:56:00.940Z,7.73
2023-04-05T14:58:29.584Z,7.54
2023-04-05T15:00:57.170Z,7.41
2023-04-05T15:03:25.159Z,7.33
2023-04-05T15:05:52.491Z,7.31
2023-04-05T15:08:22.736Z,7.27
2023-04-05T15:10:49.876Z,7.28
2023-04-05T15:13:19.860Z,7.13
2023-04-05T15:15:46.941Z,7.17
2023-04-05T15:18:14.347Z,7.13
2023-04-05T15:20:42.805Z,7.11
2023-04-05T15:23:10.128Z,7.11
2023-04-05T15:25:37.131Z,7.04
2023-04-05T15:28:07.029Z,6.97
2023-04-05T15:30:34.290Z,6.94
2023-04-05T15:33:02.247Z,6.96
2023-04-05T15:35:29.464Z,6.93
2023-04-05T15:37:57.113Z,6.87
2023-04-05T15:40:24.125Z,6.79
2023-04-05T15:42:51.479Z,6.82
2023-04-05T15:45:18.538Z,6.87
2023-04-05T15:47:45.864Z,6.94
2023-04-05T15:50:12.991Z,6.85
2023-04-05T15:52:40.251Z,6.84
2023-04-05T15:55:07.473Z,6.75
2023-04-05T15:57:34.723Z,6.74
2023-04-05T16:00:02.006Z,6.69
2023-04-05T16:02:32.020Z,6.64
2023-04-05T16:04:58.984Z,6.56
2023-04-05T16:07:26.625Z,6.60
2023-04-05T16:09:53.593Z,6.56
2023-04-05T16:12:20.958Z,6.51
2023-04-05T16:14:47.999Z,6.42
2023-04-05T16:17:15.582Z,6.48
2023-04-05T16:19:44.976Z,6.43
2023-04-05T16:22:12.434Z,6.36
2023-04-05T16:24:39.418Z,6.33
2023-04-05T16:27:06.887Z,6.29
2023-04-05T16:29:33.993Z,6.25
2023-04-05T16:32:03.743Z,6.19
2023-04-05T16:34:31.174Z,6.09
2023-04-05T16:36:58.848Z,6.06
2023-04-05T16:39:25.936Z,6.04
2023-04-05T16:41:55.670Z,6.01
2023-04-05T16:44:22.565Z,5.96
2023-04-05T16:46:49.823Z,5.99
2023-04-05T16:49:17.216Z,5.97
2023-04-05T16:51:44.496Z,5.92
2023-04-05T16:54:11.753Z,5.92
2023-04-05T16:56:39.402Z,5.94
2023-04-05T16:59:08.159Z,5.90
2023-04-05T17:01:36.034Z,5.89
2023-04-05T17:04:06.271Z,5.87
2023-04-05T17:06:34.161Z,5.85
2023-04-05T17:09:02.415Z,5.76
2023-04-05T17:11:30.742Z,5.74
2023-04-05T17:13:59.612Z,5.70
2023-04-05T17:16:27.338Z,5.68
2023-04-05T17:18:54.461Z,5.60
2023-04-05T17:21:23.018Z,5.56
2023-04-05T17:23:50.077Z,5.55
2023-04-05T17:26:17.566Z,5.51
2023-04-05T17:28:44.698Z,5.51
2023-04-05T17:31:12.236Z,5.46
2023-04-05T17:33:39.349Z,5.47
2023-04-05T17:36:07.465Z,5.45
2023-04-05T17:38:34.737Z,5.46
2023-04-05T17:41:03.051Z,5.42
2023-04-05T17:43:30.175Z,5.36
2023-04-05T17:45:57.553Z,5.35
2023-04-05T17:48:24.789Z,5.37
2023-04-05T17:50:52.311Z,5.36
2023-04-05T17:53:21.868Z,5.36
2023-04-05T17:55:51.549Z,5.37
2023-04-05T17:58:19.679Z,5.39
2023-04-05T18:00:47.040Z,5.33
2023-04-05T18:03:14.379Z,5.28
2023-04-05T18:05:41.743Z,5.26
2023-04-05T18:08:08.803Z,5.25
2023-04-05T18:10:36.616Z,5.22
2023-04-05T18:13:06.641Z,5.17
2023-04-05T18:15:34.315Z,5.13
2023-04-05T18:18:01.614Z,5.06
2023-04-05T18:20:29.322Z,4.95
2023-04-05T18:22:58.233Z,4.86
2023-04-05T18:25:26.109Z,4.78
2023-04-05T18:27:53.653Z,4.65
2023-04-05T18:30:21.185Z,4.46
2023-04-05T18:32:48.107Z,4.29
2023-04-05T18:35:15.592Z,4.11
2023-04-05T18:37:42.549Z,4.07
2023-04-05T18:40:09.826Z,3.99
2023-04-05T18:42:37.471Z,3.94
2023-04-05T18:45:04.685Z,3.91
2023-04-05T18:47:34.070Z,3.84
2023-04-05T18:50:03.648Z,3.84
2023-04-05T18:52:34.225Z,3.91
2023-04-05T18:55:01.584Z,4.04
2023-04-05T18:57:32.282Z,4.03
2023-04-05T18:59:59.650Z,4.05
2023-04-05T19:02:27.503Z,4.06
2023-04-05T19:04:55.578Z,4.11
2023-04-05T19:07:23.465Z,4.05
2023-04-05T19:09:50.545Z,4.07
2023-04-05T19:12:17.990Z,4.08
2023-04-05T19:14:46.652Z,4.11
2023-04-05T19:17:14.451Z,4.10
2023-04-05T19:19:42.624Z,4.14
2023-04-05T19:22:11.363Z,4.15
2023-04-05T19:24:40.308Z,4.14
2023-04-05T19:27:08.310Z,4.12
2023-04-05T19:29:36.297Z,4.14
2023-04-05T19:32:04.245Z,4.16
2023-04-05T19:34:32.333Z,4.19
2023-04-05T19:37:01.112Z,4.15
2023-04-05T19:39:29.851Z,4.10
2023-04-05T19:41:58.426Z,4.00
2023-04-05T19:44:36.002Z,3.90
2023-04-05T19:47:07.534Z,3.80
2023-04-05T19:49:39.481Z,3.69
2023-04-05T19:52:08.485Z,3.56
2023-04-05T19:54:38.931Z,3.37
2023-04-05T19:57:07.380Z,3.22
2023-04-05T19:59:35.080Z,3.05
2023-04-05T20:02:12.060Z,2.92
2023-04-05T20:04:39.833Z,2.82
2023-04-05T20:07:10.017Z,2.72
2023-04-05T20:09:40.182Z,2.67
2023-04-05T20:12:07.781Z,2.58
2023-04-05T20:14:34.831Z,2.47
2023-04-05T20:17:02.170Z,2.41
2023-04-05T20:19:30.918Z,2.38
2023-04-05T20:22:01.713Z,2.30
2023-04-05T20:24:30.532Z,2.26
2023-04-05T20:26:58.409Z,2.20
2023-04-05T20:29:27.814Z,2.14
2023-04-05T20:31:55.486Z,2.09
2023-04-05T20:34:31.622Z,2.09
2023-04-05T20:37:00.802Z,2.07
2023-04-05T20:39:28.596Z,2.02
2023-04-05T20:41:56.952Z,1.99
2023-04-05T20:44:24.962Z,1.89
2023-04-05T20:46:54.238Z,1.85
2023-04-05T20:49:21.642Z,1.83
2023-04-05T20:51:55.908Z,1.87
2023-04-05T20:54:25.745Z,1.80
2023-04-05T20:56:53.437Z,1.73
2023-04-05T20:59:21.950Z,1.66
2023-04-05T21:01:49.602Z,1.63
2023-04-05T21:04:19.076Z,1.49
2023-04-05T21:06:46.614Z,1.34
2023-04-05T21:09:16.154Z,1.30
2023-04-05T21:11:43.642Z,1.17
2023-04-05T21:14:11.199Z,1.07
2023-04-05T21:16:41.074Z,0.99
2023-04-05T21:19:11.100Z,0.90
2023-04-05T21:21:38.799Z,0.81
2023-04-05T21:24:09.655Z,0.77
2023-04-05T21:26:37.906Z,0.72
2023-04-05T21:29:05.635Z,0.61
2023-04-05T21:31:33.839Z,0.57
2023-04-05T21:34:01.022Z,0.52
2023-04-05T21:36:29.912Z,0.43
2023-04-05T21:38:58.917Z,0.34
2023-04-05T21:41:27.367Z,0.31
2023-04-05T21:43:57.720Z,0.27
2023-04-05T21:46:25.727Z,0.26
2023-04-05T21:48:52.865Z,0.23
2023-04-05T21:51:20.602Z,0.20
2023-04-05T21:53:48.312Z,0.12
2023-04-05T21:56:16.550Z,0.08
2023-04-05T21:58:43.843Z,0.00
2023-04-05T22:01:14.045Z,-0.08
2023-04-05T22:03:41.529Z,-0.14
2023-04-05T22:06:09.224Z,-0.07
2023-04-05T22:08:39.840Z,-0.08
2023-04-05T22:11:07.462Z,-0.13
2023-04-05T22:13:34.665Z,-0.18
2023-04-05T22:16:02.263Z,-0.17
2023-04-05T22:18:29.638Z,0.03
2023-04-05T22:20:57.513Z,0.06
2023-04-05T22:23:24.702Z,0.03
2023-04-05T22:25:55.250Z,0.09
2023-04-05T22:28:23.749Z,0.08
2023-04-05T22:30:51.888Z,0.09
2023-04-05T22:33:19.051Z,0.14
2023-04-05T22:35:49.185Z,0.05
2023-04-05T22:38:16.448Z,0.03
2023-04-05T22:40:47.796Z,-0.03
2023-04-05T22:43:15.134Z,0.03
2023-04-05T22:45:45.142Z,0.07
2023-04-05T22:48:12.417Z,0.08
2023-04-05T22:50:41.742Z,0.08
2023-04-05T22:53:08.905Z,0.03
2023-04-05T22:55:40.736Z,0.02
2023-04-05T22:58:08.252Z,-0.03
2023-04-05T23:00:37.576Z,-0.04
2023-04-05T23:03:05.098Z,-0.04
2023-04-05T23:05:36.918Z,-0.07
2023-04-05T23:08:04.539Z,-0.11
2023-04-05T23:10:33.205Z,-0.17
2023-04-05T23:13:00.986Z,-0.25
2023-04-05T23:15:29.997Z,-0.28
2023-04-05T23:18:00.057Z,-0.38
2023-04-05T23:20:27.901Z,-0.41
2023-04-05T23:22:57.974Z,-0.41
2023-04-05T23:25:25.856Z,-0.47
2023-04-05T23:27:55.565Z,-0.51
2023-04-05T23:30:24.454Z,-0.59
2023-04-05T23:32:52.088Z,-0.59
2023-04-05T23:35:22.468Z,-0.63
2023-04-05T23:37:50.034Z,-0.63
2023-04-05T23:40:17.818Z,-0.68
2023-04-05T23:42:46.485Z,-0.69
2023-04-05T23:45:14.014Z,-0.68
2023-04-05T23:47:41.468Z,-0.71
2023-04-05T23:50:09.514Z,-0.75
2023-04-05T23:52:40.103Z,-0.77
2023-04-05T23:55:07.773Z,-0.86
2023-04-05T23:57:37.265Z,-0.95
